Latest Weather Observations for Birdsville

IDQ60801

Issued at 11:02 am EST Wednesday 1 July 2015 (issued every 30 minutes, with the page automatically refreshed every 10 minutes)

About weather observations | Map of weather stations | Latest weather observations for QLD | Other Formats
Station Details ID: 038026 Name: BIRDSVILLE AIRPORT Lat: -25.90 Lon: 139.35 Height: 46.6 m
Data from the previous 72 hours. | See also: Recent months at Birdsville
Date/Time
EST
Temp
°C
App
Temp
°C
Dew
Point
Rel
Hum
%
Delta-T
°C
Wind Press
QNH
hPa
Press
MSL
hPa
Rain
since 9 am
mm
Dir
 
Spd
km/h
Gust
km/h
Spd
kts
Gust
kts
01/11:00am 15.9 11.7 7.4 57 4.2 SE 19 22 10 12 1028.3 - 0.0
01/10:30am 14.9 10.5 7.2 60 3.8 SE 20 24 11 13 1028.5 - 0.0
01/10:00am 14.1 9.7 7.2 63 3.4 SE 20 26 11 14 1028.8 - 0.0
01/09:30am 13.0 8.4 6.6 65 3.0 SSE 20 28 11 15 1028.5 - 0.0
01/09:00am 11.9 8.3 6.8 71 2.4 S 15 20 8 11 1028.3 1028.3 0.0
01/08:30am 11.2 6.8 6.7 74 2.1 S 19 22 10 12 1028.0 - 0.0
01/08:00am 10.5 6.5 6.6 77 1.8 S 17 20 9 11 1027.7 - 0.0
01/07:30am 10.3 6.0 6.8 79 1.7 S 19 20 10 11 1027.6 - 0.0
01/07:00am 10.5 7.3 7.0 79 1.7 S 13 17 7 9 1027.1 - 0.0
01/06:30am 10.2 6.6 6.9 80 1.6 SSW 15 17 8 9 1026.7 - 0.0
01/06:00am 10.8 8.4 7.1 78 1.8 S 9 15 5 8 1026.5 1026.5 0.0
01/05:30am 11.0 8.6 7.1 77 1.9 S 9 11 5 6 1026.2 - 0.0
01/05:00am 11.3 8.6 7.4 77 1.9 SSE 11 13 6 7 1026.3 - 0.0
01/04:30am 11.6 8.6 7.5 76 2.0 SSE 13 17 7 9 1026.1 - 0.0
01/04:00am 11.8 8.4 7.5 75 2.1 S 15 19 8 10 1026.0 - 0.0
01/03:00am 12.2 8.8 7.7 74 2.2 S 15 17 8 9 1026.4 1026.4 0.0
01/02:30am 12.5 8.7 7.6 72 2.4 S 17 20 9 11 1026.4 - 0.0
01/02:00am 13.0 9.2 7.7 70 2.6 S 17 20 9 11 1026.4 - 0.0
01/01:30am 13.7 9.6 7.9 68 2.9 S 19 24 10 13 1026.4 - 0.0
01/01:00am 14.2 10.1 7.7 65 3.2 S 19 26 10 14 1026.6 - 0.0
01/12:30am 14.5 11.1 7.8 64 3.3 S 15 20 8 11 1026.8 - 0.0
01/12:00am 14.9 11.3 8.2 64 3.3 S 17 24 9 13 1026.8 1026.8 0.0
 
Date/Time
EST
Temp
°C
App
Temp
°C
Dew
Point
Rel
Hum
%
Delta-T
°C
Wind Press
QNH
hPa
Press
MSL
hPa
Rain
since 9 am
mm
Dir
 
Spd
km/h
Gust
km/h
Spd
kts
Gust
kts
30/11:30pm 15.1 11.4 8.1 63 3.5 S 17 22 9 12 1026.9 - 0.0
30/11:00pm 15.2 11.6 8.2 63 3.5 S 17 20 9 11 1026.9 - 0.0
30/10:30pm 15.0 11.7 8.0 63 3.5 SSW 15 17 8 9 1026.9 - 0.0
30/10:00pm 16.6 12.7 8.6 59 4.1 S 19 24 10 13 1026.7 - 0.0
30/09:30pm 17.0 13.4 8.4 57 4.4 S 17 20 9 11 1026.6 - 0.0
30/09:00pm 17.3 13.7 8.4 56 4.5 S 17 20 9 11 1026.5 1026.5 0.0
30/08:30pm 17.7 14.5 8.3 54 4.8 S 15 19 8 10 1026.2 - 0.0
30/08:00pm 18.4 14.8 8.4 52 5.2 S 17 22 9 12 1025.9 - 0.0
30/07:30pm 18.6 15.8 8.6 52 5.2 S 13 17 7 9 1025.5 - 0.0
30/07:00pm 19.1 16.3 8.4 50 5.6 S 13 17 7 9 1024.9 - 0.0
30/06:30pm 20.0 16.8 8.4 47 6.1 S 15 20 8 11 1024.5 - 0.0
30/06:00pm 20.8 16.3 8.4 45 6.5 S 22 28 12 15 1024.2 1024.1 0.0
30/05:30pm 21.4 16.5 8.3 43 6.9 S 24 32 13 17 1023.9 - 0.0
30/05:00pm 21.9 17.0 8.4 42 7.1 S 24 30 13 16 1023.8 - 0.0
30/04:30pm 22.6 17.8 8.7 41 7.4 S 24 30 13 16 1023.5 - 0.0
30/04:00pm 22.5 16.8 8.2 40 7.5 S 28 41 15 22 1023.7 - 0.0
30/03:30pm 22.3 17.0 8.4 41 7.4 SSW 26 32 14 17 1023.8 - 0.0
30/03:00pm 22.0 17.1 8.5 42 7.1 SSW 24 30 13 16 1024.2 1024.3 0.0
30/02:30pm 22.0 17.6 8.9 43 7.0 SSW 22 30 12 16 1024.6 - 0.0
30/02:00pm 21.5 17.1 9.1 45 6.6 SSW 22 32 12 17 1025.0 - 0.0
30/01:30pm 20.7 16.6 8.7 46 6.3 SSW 20 28 11 15 1025.0 - 0.0
30/01:00pm 20.5 16.5 9.1 48 6.0 SSW 20 26 11 14 1025.3 - 0.0
30/12:30pm 20.2 15.9 9.2 49 5.8 SSW 22 30 12 16 1025.6 - 0.0
30/12:00pm 19.3 16.4 9.8 54 5.0 SSW 15 19 8 10 1025.8 1025.8 0.0
30/11:30am 18.9 16.0 9.7 55 4.9 SSW 15 20 8 11 1026.0 - 0.0
30/11:00am 18.3 15.4 9.6 57 4.6 SSW 15 19 8 10 1026.2 - 0.0
30/10:30am 17.2 14.4 9.9 62 3.9 S 15 17 8 9 1026.1 - 0.0
30/10:00am 16.1 13.4 9.1 63 3.6 SSE 13 15 7 8 1025.9 - 0.0
30/09:30am 14.9 11.8 8.8 67 3.1 SSE 15 19 8 10 1025.6 - 0.0
30/09:00am 13.5 10.7 8.4 71 2.5 SSE 13 17 7 9 1025.7 1025.6 0.0
30/08:30am 12.7 9.8 8.2 74 2.2 S 13 17 7 9 1025.6 - 0.0
30/08:00am 12.0 8.7 8.1 77 1.9 S 15 17 8 9 1025.3 - 0.0
30/07:30am 11.8 8.9 8.1 78 1.8 SSE 13 17 7 9 1024.6 - 0.0
30/07:00am 12.0 9.1 8.1 77 1.9 SSE 13 17 7 9 1024.3 - 0.0
30/06:30am 12.1 9.2 8.0 76 2.0 SSE 13 17 7 9 1024.1 - 0.0
30/06:00am 12.6 9.3 8.1 74 2.2 SSE 15 19 8 10 1023.7 1023.7 0.0
30/05:30am 12.7 9.4 8.0 73 2.3 SSE 15 19 8 10 1023.8 - 0.0
30/05:00am 13.0 9.7 7.9 71 2.5 SSE 15 19 8 10 1023.9 - 0.0
30/04:30am 13.1 9.3 7.5 69 2.7 SSE 17 20 9 11 1023.9 - 0.0
30/04:00am 13.2 9.7 7.2 67 2.9 SSE 15 19 8 10 1024.0 - 0.0
30/03:30am 13.4 9.5 7.0 65 3.1 S 17 22 9 12 1024.2 - 0.0
30/03:00am 13.7 9.8 7.0 64 3.2 S 17 20 9 11 1024.2 1024.3 0.0
30/02:30am 14.0 10.4 6.8 62 3.5 S 15 17 8 9 1024.6 - 0.0
30/02:00am 14.6 10.1 6.9 60 3.8 S 20 24 11 13 1024.7 - 0.0
30/01:30am 15.0 10.1 7.1 59 3.9 S 22 28 12 15 1024.4 - 0.0
30/01:00am 15.6 11.4 7.4 58 4.1 S 19 24 10 13 1024.7 - 0.0
30/12:30am 15.8 11.4 7.6 58 4.1 S 20 26 11 14 1024.7 - 0.0
30/12:00am 16.5 11.8 7.7 56 4.4 S 22 28 12 15 1025.0 1025.0 0.0
 
Date/Time
EST
Temp
°C
App
Temp
°C
Dew
Point
Rel
Hum
%
Delta-T
°C
Wind Press
QNH
hPa
Press
MSL
hPa
Rain
since 9 am
mm
Dir
 
Spd
km/h
Gust
km/h
Spd
kts
Gust
kts
29/11:30pm 17.1 12.6 8.5 57 4.4 SSW 22 28 12 15 1025.0 - 0.0
29/11:00pm 18.0 13.6 9.1 56 4.6 S 22 28 12 15 1025.2 - 0.0
29/10:30pm 18.4 14.4 9.2 55 4.8 S 20 28 11 15 1025.2 - 0.0
29/10:00pm 18.7 14.1 9.8 56 4.7 S 24 32 13 17 1025.1 - 0.0
29/09:30pm 19.2 14.6 9.7 54 5.1 SSW 24 32 13 17 1024.7 - 0.0
29/09:00pm 20.1 15.9 9.7 51 5.5 SSW 22 28 12 15 1024.5 1024.5 0.0
29/08:30pm 21.0 16.9 10.2 50 5.9 SSW 22 26 12 14 1023.9 - 0.0
29/08:00pm 21.4 18.1 9.6 47 6.3 SE 17 20 9 11 1023.7 - 0.0
29/07:30pm 21.7 18.6 8.9 44 6.8 ESE 15 19 8 10 1023.3 - 0.0
29/07:00pm 22.4 19.2 8.5 41 7.4 SE 15 20 8 11 1022.9 - 0.0
29/06:30pm 21.8 20.5 11.2 51 5.9 E 9 13 5 7 1022.4 - 0.0
29/06:00pm 22.5 19.5 9.3 43 7.1 E 15 19 8 10 1022.3 1022.3 0.0
29/05:30pm 24.1 20.9 11.1 44 7.3 S 19 22 10 12 1021.8 - 0.0
29/05:00pm 25.1 22.0 10.2 39 8.3 S 17 26 9 14 1021.4 - 0.0
29/04:30pm 25.5 23.1 8.5 34 9.2 S 11 13 6 7 1021.4 - 0.0
29/04:00pm 25.5 23.1 8.5 34 9.2 SE 11 17 6 9 1021.5 - 0.0
29/03:30pm 25.4 23.3 8.4 34 9.2 N 9 15 5 8 1021.6 - 0.0
29/03:00pm 26.0 23.3 8.9 34 9.3 ENE 13 20 7 11 1021.8 1021.9 0.0
29/02:30pm 25.8 24.0 9.6 36 8.9 NE 9 17 5 9 1022.2 - 0.0
29/02:00pm 25.1 23.0 9.8 38 8.4 NNE 11 19 6 10 1022.7 - 0.0
29/01:30pm 25.0 21.5 10.1 39 8.2 NE 19 26 10 14 1023.0 - 0.0
29/01:00pm 24.8 20.8 10.3 40 8.0 NE 22 26 12 14 1023.5 - 0.0
29/12:30pm 23.8 20.2 10.5 43 7.4 NE 20 41 11 22 1024.2 - 0.0
29/12:00pm 22.6 18.9 10.1 45 6.8 NE 20 30 11 16 1024.6 1024.7 0.0
29/11:30am 22.0 18.3 10.2 47 6.4 NE 20 26 11 14 1024.9 - 0.0
29/11:00am 21.4 17.2 9.9 48 6.2 E 22 30 12 16 1025.0 - 0.0
29/10:30am 20.2 16.5 10.3 53 5.4 E 20 28 11 15 1025.2 - 0.0
29/10:00am 19.0 15.4 10.0 56 4.8 E 19 26 10 14 1025.3 - 0.0
29/09:30am 18.5 15.3 10.1 58 4.5 E 17 24 9 13 1025.4 - 0.0
29/09:00am 18.0 15.2 9.9 59 4.3 E 15 20 8 11 1025.4 1025.4 0.0
29/08:30am 17.9 14.1 9.8 59 4.3 E 20 26 11 14 1025.1 - 0.0
29/08:00am 17.8 14.0 9.7 59 4.3 ESE 20 30 11 16 1024.6 - 0.0
29/07:30am 17.8 13.6 9.7 59 4.3 ESE 22 30 12 16 1024.3 - 0.0
29/07:00am 17.6 13.8 9.8 60 4.1 ESE 20 28 11 15 1024.2 - 0.0
29/06:30am 17.6 13.1 10.0 61 4.0 E 24 32 13 17 1024.0 - 0.0
29/06:00am 17.6 13.1 10.0 61 4.0 E 24 33 13 18 1023.7 1023.8 0.0
29/05:30am 17.8 13.6 9.9 60 4.2 E 22 28 12 15 1023.8 - 0.0
29/05:00am 18.0 13.9 10.1 60 4.2 ESE 22 32 12 17 1023.8 - 0.0
29/04:30am 18.2 13.3 10.1 59 4.3 E 26 32 14 17 1023.7 - 0.0
29/04:00am 17.9 13.5 10.3 61 4.1 E 24 32 13 17 1023.7 - 0.0
29/03:30am 18.0 12.8 10.4 61 4.1 ESE 28 35 15 19 1023.8 - 0.0
29/03:00am 18.1 11.9 10.2 60 4.2 ESE 33 41 18 22 1023.6 1023.6 0.0
29/02:30am 18.3 12.1 10.2 59 4.3 ESE 33 46 18 25 1023.8 - 0.0
29/02:00am 18.4 12.2 10.0 58 4.5 ESE 33 44 18 24 1024.1 - 0.0
29/01:30am 18.3 11.4 10.2 59 4.3 ESE 37 46 20 25 1024.4 - 0.0
29/01:00am 18.3 11.8 10.2 59 4.3 ESE 35 50 19 27 1024.8 - 0.0
29/12:30am 18.4 12.5 10.3 59 4.3 SE 32 43 17 23 1025.4 - 0.0
29/12:00am 18.3 13.5 10.4 60 4.2 SE 26 33 14 18 1025.7 1025.8 0.0
 
Date/Time
EST
Temp
°C
App
Temp
°C
Dew
Point
Rel
Hum
%
Delta-T
°C
Wind Press
QNH
hPa
Press
MSL
hPa
Rain
since 9 am
mm
Dir
 
Spd
km/h
Gust
km/h
Spd
kts
Gust
kts
28/11:30pm 18.4 14.0 10.3 59 4.3 SSE 24 30 13 16 1025.9 - 0.0
28/11:00pm 18.3 14.9 10.4 60 4.2 SSE 19 24 10 13 1026.1 - 0.0
28/10:30pm 18.3 14.8 10.2 59 4.3 SSE 19 24 10 13 1025.9 - 0.0
28/10:00pm 18.4 15.6 10.0 58 4.5 S 15 19 8 10 1026.0 - 0.0
28/09:30pm 19.0 15.8 10.0 56 4.8 SSE 17 20 9 11 1026.1 - 0.0
28/09:00pm 19.9 16.3 10.0 53 5.3 SSE 19 24 10 13 1025.7 1025.7 0.0
28/08:30pm 20.5 16.9 10.0 51 5.7 SSE 19 24 10 13 1025.7 - 0.0
28/08:00pm 20.9 17.4 10.1 50 5.8 S 19 26 10 14 1025.3 - 0.0
28/07:30pm 21.6 18.0 9.8 47 6.4 S 19 24 10 13 1025.1 - 0.0
28/07:00pm 22.5 19.6 9.6 44 7.0 S 15 20 8 11 1024.8 - 0.0
28/06:30pm 23.0 19.8 9.8 43 7.2 S 17 20 9 11 1024.5 - 0.0
28/06:00pm 23.8 21.2 9.4 40 7.8 S 13 20 7 11 1024.2 1024.2 0.0
28/05:30pm 24.5 22.5 8.5 36 8.6 S 9 11 5 6 1023.9 - 0.0
28/05:00pm 24.5 22.9 8.9 37 8.4 SSE 7 11 4 6 1023.7 - 0.0
28/04:30pm 24.6 22.6 8.5 36 8.6 SE 9 13 5 7 1023.7 - 0.0
28/04:00pm 25.2 22.7 8.2 34 9.1 SE 11 15 6 8 1024.0 - 0.0
28/03:30pm 25.2 23.5 8.2 34 9.1 ENE 7 13 4 7 1024.1 - 0.0
28/03:00pm 24.8 22.4 8.7 36 8.6 NNE 11 20 6 11 1024.2 1024.2 0.0
28/02:30pm 24.8 22.4 8.7 36 8.7 ENE 11 19 6 10 1024.4 - 0.0
28/02:00pm 24.9 22.3 9.2 37 8.5 NNE 13 19 7 10 1024.6 - 0.0
28/01:30pm 24.1 21.8 8.9 38 8.2 NE 11 20 6 11 1025.2 - 0.0
28/01:00pm 23.6 20.5 8.8 39 7.9 E 15 20 8 11 1025.8 - 0.0
28/12:30pm 23.0 19.8 9.8 43 7.2 E 17 24 9 13 1026.3 - 0.0
28/12:00pm 21.8 18.2 9.7 46 6.5 E 19 20 10 11 1026.7 1026.8 0.0
28/11:30am 21.0 17.4 9.9 49 6.0 E 19 26 10 14 1027.3 - 0.0

Other Formats:

Comma delimited format used in spreadsheet applications
http://www.bom.gov.au/fwo/IDQ60801/IDQ60801.95482.axf

JavaScript Object Notation format (JSON) in row-major order
http://www.bom.gov.au/fwo/IDQ60801/IDQ60801.95482.json